AXB2505 VOBL-VOTR
Flight info
| Callsign | AXB2505 |
|---|---|
| Flight time | 0h 52m |
| Altitude | 27000 |
| Route | AKTIM8A AKTIM V45 TTR |
| Aircraft | A20N/M-SDE2E3FGHIRWXY/LB1 |
Departure
| Time | 2026-04-17 08:25 |
|---|---|
| Airport | Kempegowda International Airport Bengaluru (VOBL) |
Arrival
| Time | 2026-04-17 09:17 |
|---|---|
| Airport | Tiruchirappalli International Airport (VOTR) |
| Time | Latitude | Longitude | Altitude | Speed | Heading |
|---|---|---|---|---|---|
| 2026-04-17 08:04 | 13.20174 | 77.70186 | 3011 ft | 0 kts | 180° |
| 2026-04-17 08:14 | 13.20201 | 77.70186 | 3011 ft | 2 kts | 180° |
| 2026-04-17 08:14 | 13.20216 | 77.70186 | 3011 ft | 2 kts | 180° |
| 2026-04-17 08:14 | 13.20231 | 77.70186 | 3011 ft | 2 kts | 180° |
| 2026-04-17 08:14 | 13.20246 | 77.70186 | 3015 ft | 2 kts | 194° |
| 2026-04-17 08:15 | 13.20259 | 77.70193 | 3018 ft | 2 kts | 231° |
| 2026-04-17 08:15 | 13.20266 | 77.70206 | 3011 ft | 2 kts | 270° |
| 2026-04-17 08:15 | 13.20266 | 77.70189 | 3016 ft | 3 kts | 272° |
| 2026-04-17 08:15 | 13.20266 | 77.70185 | 3015 ft | 0 kts | 271° |
| 2026-04-17 08:18 | 13.20267 | 77.70142 | 3011 ft | 13 kts | 270° |
| 2026-04-17 08:18 | 13.20268 | 77.70032 | 3011 ft | 15 kts | 270° |
| 2026-04-17 08:18 | 13.20268 | 77.69931 | 3011 ft | 13 kts | 271° |
| 2026-04-17 08:18 | 13.20270 | 77.69844 | 3011 ft | 11 kts | 271° |
| 2026-04-17 08:19 | 13.20271 | 77.69771 | 3011 ft | 9 kts | 270° |
| 2026-04-17 08:19 | 13.20271 | 77.69687 | 3011 ft | 16 kts | 269° |
| 2026-04-17 08:19 | 13.20271 | 77.69547 | 3011 ft | 22 kts | 272° |
| 2026-04-17 08:19 | 13.20273 | 77.69401 | 3011 ft | 20 kts | 270° |
| 2026-04-17 08:20 | 13.20348 | 77.69330 | 3011 ft | 14 kts | 360° |
| 2026-04-17 08:20 | 13.20436 | 77.69330 | 3011 ft | 12 kts | 0° |
| 2026-04-17 08:20 | 13.20517 | 77.69319 | 3010 ft | 14 kts | 321° |
| 2026-04-17 08:20 | 13.20539 | 77.69203 | 3011 ft | 20 kts | 272° |
| 2026-04-17 08:21 | 13.20542 | 77.69035 | 3010 ft | 26 kts | 270° |
| 2026-04-17 08:21 | 13.20544 | 77.68835 | 3011 ft | 28 kts | 270° |
| 2026-04-17 08:21 | 13.20552 | 77.68653 | 3011 ft | 22 kts | 296° |
| 2026-04-17 08:21 | 13.20618 | 77.68615 | 3011 ft | 0 kts | 3° |
| 2026-04-17 08:23 | 13.20625 | 77.68616 | 3011 ft | 3 kts | 3° |
| 2026-04-17 08:23 | 13.20661 | 77.68618 | 3011 ft | 7 kts | 3° |
| 2026-04-17 08:23 | 13.20711 | 77.68638 | 3011 ft | 8 kts | 54° |
| 2026-04-17 08:23 | 13.20717 | 77.68662 | 3011 ft | 2 kts | 85° |
| 2026-04-17 08:24 | 13.20716 | 77.68890 | 3011 ft | 65 kts | 91° |
| 2026-04-17 08:24 | 13.20709 | 77.69570 | 3011 ft | 123 kts | 90° |
| 2026-04-17 08:24 | 13.20701 | 77.70613 | 3012 ft | 167 kts | 90° |
| 2026-04-17 08:24 | 13.20697 | 77.71837 | 3448 ft | 170 kts | 90° |
| 2026-04-17 08:25 | 13.20701 | 77.73081 | 4025 ft | 174 kts | 89° |
| 2026-04-17 08:25 | 13.20712 | 77.74314 | 4690 ft | 172 kts | 89° |
| 2026-04-17 08:25 | 13.20716 | 77.75541 | 5292 ft | 177 kts | 91° |
| 2026-04-17 08:25 | 13.20688 | 77.76859 | 5710 ft | 196 kts | 91° |
| 2026-04-17 08:26 | 13.20653 | 77.78351 | 6105 ft | 219 kts | 91° |
| 2026-04-17 08:26 | 13.20622 | 77.80011 | 6546 ft | 244 kts | 91° |
| 2026-04-17 08:26 | 13.20602 | 77.81835 | 7099 ft | 267 kts | 90° |
| 2026-04-17 08:26 | 13.20583 | 77.83775 | 7742 ft | 282 kts | 90° |
| 2026-04-17 08:27 | 13.20397 | 77.85817 | 8697 ft | 286 kts | 107° |
| 2026-04-17 08:27 | 13.19464 | 77.87582 | 9568 ft | 290 kts | 132° |
| 2026-04-17 08:27 | 13.17817 | 77.88820 | 10406 ft | 297 kts | 156° |
| 2026-04-17 08:27 | 13.15767 | 77.89297 | 10786 ft | 319 kts | 180° |
| 2026-04-17 08:28 | 13.13517 | 77.88915 | 11137 ft | 339 kts | 198° |
| 2026-04-17 08:28 | 13.11279 | 77.88063 | 11901 ft | 345 kts | 201° |
| 2026-04-17 08:28 | 13.09018 | 77.87183 | 12745 ft | 349 kts | 200° |
| 2026-04-17 08:28 | 13.06699 | 77.86376 | 13554 ft | 354 kts | 198° |
| 2026-04-17 08:29 | 13.04330 | 77.85638 | 14342 ft | 358 kts | 197° |
| 2026-04-17 08:29 | 13.01919 | 77.84940 | 15103 ft | 362 kts | 196° |
| 2026-04-17 08:29 | 12.99469 | 77.84253 | 15846 ft | 367 kts | 195° |
| 2026-04-17 08:29 | 12.96994 | 77.83566 | 16568 ft | 371 kts | 195° |
| 2026-04-17 08:30 | 12.94490 | 77.82870 | 17265 ft | 374 kts | 195° |
| 2026-04-17 08:30 | 12.91968 | 77.82169 | 17945 ft | 378 kts | 195° |
| 2026-04-17 08:30 | 12.89413 | 77.81458 | 18597 ft | 382 kts | 195° |
| 2026-04-17 08:30 | 12.86837 | 77.80740 | 19252 ft | 386 kts | 195° |
| 2026-04-17 08:31 | 12.84225 | 77.80011 | 19882 ft | 390 kts | 195° |
| 2026-04-17 08:31 | 12.81599 | 77.79279 | 20483 ft | 394 kts | 195° |
| 2026-04-17 08:31 | 12.78945 | 77.78538 | 21091 ft | 397 kts | 195° |
| 2026-04-17 08:31 | 12.76262 | 77.77789 | 21671 ft | 401 kts | 195° |
| 2026-04-17 08:32 | 12.73558 | 77.77037 | 22231 ft | 405 kts | 195° |
| 2026-04-17 08:32 | 12.70830 | 77.76278 | 22781 ft | 408 kts | 195° |
| 2026-04-17 08:32 | 12.68080 | 77.75513 | 23318 ft | 412 kts | 195° |
| 2026-04-17 08:32 | 12.65315 | 77.74743 | 23848 ft | 415 kts | 195° |
| 2026-04-17 08:33 | 12.62504 | 77.73959 | 24364 ft | 418 kts | 195° |
| 2026-04-17 08:33 | 12.59685 | 77.73174 | 24869 ft | 421 kts | 195° |
| 2026-04-17 08:33 | 12.56847 | 77.72383 | 25350 ft | 425 kts | 195° |
| 2026-04-17 08:33 | 12.53982 | 77.71584 | 25821 ft | 428 kts | 195° |
| 2026-04-17 08:34 | 12.51117 | 77.70786 | 26360 ft | 428 kts | 195° |
| 2026-04-17 08:34 | 12.48227 | 77.69981 | 26768 ft | 432 kts | 195° |
| 2026-04-17 08:34 | 12.45322 | 77.69172 | 26966 ft | 434 kts | 195° |
| 2026-04-17 08:34 | 12.42417 | 77.68360 | 25963 ft | 430 kts | 194° |
| 2026-04-17 08:35 | 12.39516 | 77.67550 | 26272 ft | 434 kts | 194° |
| 2026-04-17 08:35 | 12.36599 | 77.66738 | 26668 ft | 435 kts | 194° |
| 2026-04-17 08:35 | 12.33667 | 77.65923 | 26902 ft | 438 kts | 194° |
| 2026-04-17 08:35 | 12.30769 | 77.65117 | 26963 ft | 439 kts | 194° |
| 2026-04-17 08:36 | 12.27784 | 77.64287 | 26965 ft | 438 kts | 194° |
| 2026-04-17 08:36 | 12.24842 | 77.63470 | 26965 ft | 438 kts | 194° |
| 2026-04-17 08:36 | 12.21904 | 77.62653 | 26959 ft | 437 kts | 194° |
| 2026-04-17 08:36 | 12.18969 | 77.61838 | 26957 ft | 438 kts | 194° |
| 2026-04-17 08:37 | 12.16023 | 77.61020 | 26959 ft | 438 kts | 194° |
| 2026-04-17 08:37 | 12.13088 | 77.60205 | 26958 ft | 437 kts | 194° |
| 2026-04-17 08:37 | 12.10093 | 77.59716 | 26958 ft | 436 kts | 181° |
| 2026-04-17 08:37 | 12.07072 | 77.59916 | 26949 ft | 436 kts | 168° |
| 2026-04-17 08:38 | 12.04175 | 77.60797 | 26947 ft | 435 kts | 156° |
| 2026-04-17 08:38 | 12.01565 | 77.62291 | 26945 ft | 435 kts | 144° |
| 2026-04-17 08:38 | 11.99212 | 77.64281 | 26939 ft | 436 kts | 139° |
| 2026-04-17 08:38 | 11.96961 | 77.66259 | 26932 ft | 435 kts | 139° |
| 2026-04-17 08:39 | 11.94619 | 77.68312 | 26927 ft | 434 kts | 139° |
| 2026-04-17 08:39 | 11.92326 | 77.70319 | 26906 ft | 434 kts | 139° |
| 2026-04-17 08:39 | 11.90038 | 77.72318 | 26652 ft | 431 kts | 139° |
| 2026-04-17 08:39 | 11.87771 | 77.74299 | 26180 ft | 429 kts | 139° |
| 2026-04-17 08:40 | 11.85498 | 77.76284 | 25516 ft | 430 kts | 139° |
| 2026-04-17 08:40 | 11.83239 | 77.78256 | 24937 ft | 427 kts | 139° |
| 2026-04-17 08:40 | 11.80990 | 77.80219 | 24394 ft | 423 kts | 139° |
| 2026-04-17 08:40 | 11.78758 | 77.82167 | 23819 ft | 421 kts | 139° |
| 2026-04-17 08:41 | 11.76534 | 77.84107 | 23206 ft | 418 kts | 139° |
| 2026-04-17 08:41 | 11.74333 | 77.86029 | 22639 ft | 414 kts | 139° |
| 2026-04-17 08:41 | 11.72157 | 77.87927 | 22131 ft | 408 kts | 139° |
| 2026-04-17 08:41 | 11.70018 | 77.89792 | 21623 ft | 403 kts | 139° |
| 2026-04-17 08:42 | 11.67940 | 77.91603 | 20903 ft | 403 kts | 139° |
| 2026-04-17 08:42 | 11.65776 | 77.93486 | 20179 ft | 404 kts | 139° |
| 2026-04-17 08:42 | 11.63642 | 77.95343 | 19485 ft | 404 kts | 139° |
| 2026-04-17 08:42 | 11.61516 | 77.97209 | 18793 ft | 400 kts | 138° |
| 2026-04-17 08:43 | 11.59450 | 77.99054 | 18133 ft | 391 kts | 137° |
| 2026-04-17 08:43 | 11.57429 | 78.00867 | 17373 ft | 382 kts | 137° |
| 2026-04-17 08:43 | 11.55460 | 78.02633 | 16632 ft | 375 kts | 137° |
| 2026-04-17 08:43 | 11.53502 | 78.04384 | 15814 ft | 371 kts | 137° |
| 2026-04-17 08:44 | 11.51569 | 78.06112 | 15014 ft | 368 kts | 136° |
| 2026-04-17 08:44 | 11.49649 | 78.07825 | 14232 ft | 365 kts | 136° |
| 2026-04-17 08:44 | 11.47751 | 78.09519 | 13499 ft | 361 kts | 136° |
| 2026-04-17 08:44 | 11.45876 | 78.11191 | 12803 ft | 354 kts | 136° |
| 2026-04-17 08:45 | 11.44058 | 78.12809 | 12408 ft | 342 kts | 136° |
| 2026-04-17 08:45 | 11.42235 | 78.14437 | 12162 ft | 352 kts | 136° |
| 2026-04-17 08:45 | 11.40407 | 78.16070 | 11929 ft | 348 kts | 136° |
| 2026-04-17 08:45 | 11.38600 | 78.17680 | 11685 ft | 343 kts | 136° |
| 2026-04-17 08:46 | 11.36805 | 78.19279 | 11451 ft | 342 kts | 136° |
| 2026-04-17 08:46 | 11.35017 | 78.20872 | 11216 ft | 341 kts | 136° |
| 2026-04-17 08:46 | 11.33236 | 78.22459 | 10975 ft | 339 kts | 136° |
| 2026-04-17 08:46 | 11.31470 | 78.24032 | 10740 ft | 337 kts | 135° |
| 2026-04-17 08:47 | 11.29703 | 78.25604 | 10512 ft | 336 kts | 135° |
| 2026-04-17 08:47 | 11.27956 | 78.27161 | 10328 ft | 332 kts | 135° |
| 2026-04-17 08:47 | 11.26248 | 78.28678 | 10212 ft | 317 kts | 135° |
| 2026-04-17 08:47 | 11.24637 | 78.30113 | 10087 ft | 299 kts | 136° |
| 2026-04-17 08:48 | 11.23099 | 78.31479 | 9800 ft | 291 kts | 135° |
| 2026-04-17 08:48 | 11.21587 | 78.32825 | 9449 ft | 288 kts | 135° |
| 2026-04-17 08:48 | 11.20097 | 78.34151 | 9272 ft | 279 kts | 134° |
| 2026-04-17 08:48 | 11.18644 | 78.35446 | 9149 ft | 282 kts | 135° |
| 2026-04-17 08:49 | 11.17180 | 78.36755 | 9031 ft | 283 kts | 135° |
| 2026-04-17 08:49 | 11.15686 | 78.38087 | 8900 ft | 281 kts | 135° |
| 2026-04-17 08:49 | 11.14227 | 78.39386 | 8779 ft | 281 kts | 135° |
| 2026-04-17 08:49 | 11.12741 | 78.40709 | 8656 ft | 282 kts | 135° |
| 2026-04-17 08:50 | 11.11268 | 78.42019 | 8475 ft | 281 kts | 135° |
| 2026-04-17 08:50 | 11.09798 | 78.43327 | 8146 ft | 280 kts | 135° |
| 2026-04-17 08:50 | 11.08341 | 78.44617 | 7812 ft | 281 kts | 135° |
| 2026-04-17 08:50 | 11.06868 | 78.45923 | 7402 ft | 281 kts | 135° |
| 2026-04-17 08:51 | 11.05377 | 78.47244 | 7059 ft | 280 kts | 136° |
| 2026-04-17 08:51 | 11.03917 | 78.48538 | 6819 ft | 283 kts | 136° |
| 2026-04-17 08:51 | 11.02416 | 78.49874 | 6711 ft | 284 kts | 136° |
| 2026-04-17 08:51 | 11.00965 | 78.51168 | 6460 ft | 278 kts | 136° |
| 2026-04-17 08:52 | 10.99510 | 78.52465 | 6156 ft | 280 kts | 136° |
| 2026-04-17 08:52 | 10.98043 | 78.53773 | 5865 ft | 279 kts | 136° |
| 2026-04-17 08:52 | 10.96586 | 78.55066 | 5571 ft | 278 kts | 136° |
| 2026-04-17 08:52 | 10.95128 | 78.56343 | 5271 ft | 278 kts | 141° |
| 2026-04-17 08:53 | 10.93385 | 78.57153 | 4974 ft | 279 kts | 168° |
| 2026-04-17 08:53 | 10.91490 | 78.57074 | 4788 ft | 275 kts | 195° |
| 2026-04-17 08:53 | 10.89847 | 78.56124 | 4686 ft | 266 kts | 224° |
| 2026-04-17 08:53 | 10.88599 | 78.54785 | 4621 ft | 256 kts | 224° |
| 2026-04-17 08:54 | 10.87288 | 78.53596 | 4527 ft | 249 kts | 216° |
| 2026-04-17 08:54 | 10.85847 | 78.52635 | 4323 ft | 247 kts | 207° |
| 2026-04-17 08:54 | 10.84301 | 78.51879 | 4063 ft | 247 kts | 200° |
| 2026-04-17 08:54 | 10.82672 | 78.51311 | 3731 ft | 248 kts | 194° |
| 2026-04-17 08:55 | 10.81008 | 78.50910 | 3434 ft | 251 kts | 189° |
| 2026-04-17 08:55 | 10.79283 | 78.50654 | 3258 ft | 245 kts | 184° |
| 2026-04-17 08:55 | 10.77605 | 78.50625 | 2958 ft | 239 kts | 168° |
| 2026-04-17 08:55 | 10.76074 | 78.51212 | 2663 ft | 235 kts | 143° |
| 2026-04-17 08:56 | 10.74955 | 78.52376 | 2407 ft | 229 kts | 120° |
| 2026-04-17 08:56 | 10.74432 | 78.53848 | 2304 ft | 216 kts | 97° |
| 2026-04-17 08:56 | 10.74491 | 78.55412 | 2302 ft | 231 kts | 81° |
| 2026-04-17 08:56 | 10.74727 | 78.57015 | 2297 ft | 221 kts | 82° |
| 2026-04-17 08:57 | 10.74940 | 78.58515 | 2314 ft | 210 kts | 82° |
| 2026-04-17 08:57 | 10.75133 | 78.59929 | 2315 ft | 194 kts | 82° |
| 2026-04-17 08:57 | 10.75310 | 78.61208 | 2282 ft | 172 kts | 82° |
| 2026-04-17 08:57 | 10.75475 | 78.62371 | 2108 ft | 161 kts | 83° |
| 2026-04-17 08:58 | 10.75624 | 78.63471 | 1889 ft | 152 kts | 83° |
| 2026-04-17 08:58 | 10.75720 | 78.64163 | 1767 ft | 147 kts | 83° |
| 2026-04-17 08:58 | 10.75910 | 78.65535 | 1455 ft | 148 kts | 82° |
| 2026-04-17 08:58 | 10.76002 | 78.66223 | 1303 ft | 149 kts | 82° |
| 2026-04-17 08:59 | 10.76161 | 78.67254 | 1226 ft | 146 kts | 77° |
| 2026-04-17 08:59 | 10.76403 | 78.68258 | 1123 ft | 146 kts | 82° |
| 2026-04-17 08:59 | 10.76465 | 78.69288 | 939 ft | 147 kts | 89° |
| 2026-04-17 08:59 | 10.76526 | 78.70336 | 635 ft | 152 kts | 86° |
| 2026-04-17 09:00 | 10.76589 | 78.71424 | 730 ft | 163 kts | 85° |
| 2026-04-17 09:00 | 10.76743 | 78.72980 | 1710 ft | 166 kts | 85° |
| 2026-04-17 09:00 | 10.76834 | 78.73776 | 2071 ft | 172 kts | 83° |
| 2026-04-17 09:00 | 10.77003 | 78.75039 | 2360 ft | 188 kts | 83° |
| 2026-04-17 09:01 | 10.77175 | 78.76363 | 2772 ft | 195 kts | 83° |
| 2026-04-17 09:01 | 10.77678 | 78.77682 | 2974 ft | 209 kts | 52° |
| 2026-04-17 09:01 | 10.78878 | 78.78531 | 3003 ft | 214 kts | 18° |
| 2026-04-17 09:01 | 10.80361 | 78.78537 | 2996 ft | 218 kts | 343° |
| 2026-04-17 09:02 | 10.81605 | 78.77676 | 3004 ft | 223 kts | 309° |
| 2026-04-17 09:02 | 10.82183 | 78.76231 | 3007 ft | 225 kts | 275° |
| 2026-04-17 09:02 | 10.81874 | 78.74681 | 2991 ft | 232 kts | 239° |
| 2026-04-17 09:02 | 10.80769 | 78.73525 | 3000 ft | 229 kts | 207° |
| 2026-04-17 09:03 | 10.79297 | 78.72970 | 2990 ft | 223 kts | 193° |
| 2026-04-17 09:03 | 10.77923 | 78.72396 | 2994 ft | 212 kts | 217° |
| 2026-04-17 09:03 | 10.77081 | 78.71209 | 3379 ft | 203 kts | 249° |
| 2026-04-17 09:03 | 10.76882 | 78.69717 | 3294 ft | 230 kts | 277° |
| 2026-04-17 09:04 | 10.77275 | 78.68088 | 3017 ft | 238 kts | 288° |
| 2026-04-17 09:04 | 10.77818 | 78.66496 | 2998 ft | 238 kts | 289° |
| 2026-04-17 09:04 | 10.78316 | 78.64906 | 3000 ft | 233 kts | 286° |
| 2026-04-17 09:04 | 10.78740 | 78.63314 | 3007 ft | 237 kts | 284° |
| 2026-04-17 09:05 | 10.79128 | 78.61660 | 2996 ft | 242 kts | 283° |
| 2026-04-17 09:05 | 10.79482 | 78.60026 | 3000 ft | 232 kts | 282° |
| 2026-04-17 09:05 | 10.79814 | 78.58416 | 3010 ft | 235 kts | 281° |
| 2026-04-17 09:05 | 10.80124 | 78.56772 | 3005 ft | 238 kts | 274° |
| 2026-04-17 09:06 | 10.79858 | 78.55143 | 2929 ft | 233 kts | 242° |
| 2026-04-17 09:06 | 10.78833 | 78.53914 | 2645 ft | 230 kts | 210° |
| 2026-04-17 09:06 | 10.77355 | 78.53460 | 2435 ft | 218 kts | 176° |
| 2026-04-17 09:06 | 10.75983 | 78.53909 | 2359 ft | 203 kts | 140° |
| 2026-04-17 09:07 | 10.75161 | 78.55001 | 2293 ft | 190 kts | 110° |
| 2026-04-17 09:07 | 10.74859 | 78.56247 | 2268 ft | 174 kts | 95° |
| 2026-04-17 09:07 | 10.74843 | 78.57415 | 2268 ft | 157 kts | 85° |
| 2026-04-17 09:07 | 10.75013 | 78.58540 | 2641 ft | 160 kts | 76° |
| 2026-04-17 09:08 | 10.75239 | 78.59536 | 3635 ft | 150 kts | 78° |
| 2026-04-17 09:08 | 10.75394 | 78.60617 | 3610 ft | 155 kts | 85° |
| 2026-04-17 09:08 | 10.75476 | 78.61694 | 3556 ft | 146 kts | 85° |
| 2026-04-17 09:08 | 10.75561 | 78.62691 | 3496 ft | 142 kts | 84° |
| 2026-04-17 09:09 | 10.75697 | 78.63682 | 3377 ft | 141 kts | 78° |
| 2026-04-17 09:09 | 10.75863 | 78.64659 | 3184 ft | 140 kts | 83° |
| 2026-04-17 09:09 | 10.76157 | 78.65592 | 2922 ft | 142 kts | 53° |
| 2026-04-17 09:09 | 10.76997 | 78.66089 | 2611 ft | 146 kts | 7° |
| 2026-04-17 09:10 | 10.78447 | 78.64976 | 2304 ft | 137 kts | 279° |
| 2026-04-17 09:10 | 10.78619 | 78.63966 | 2320 ft | 155 kts | 280° |
| 2026-04-17 09:10 | 10.78849 | 78.62864 | 2295 ft | 160 kts | 282° |
| 2026-04-17 09:11 | 10.79089 | 78.61779 | 2274 ft | 157 kts | 282° |
| 2026-04-17 09:11 | 10.79325 | 78.60698 | 2265 ft | 154 kts | 282° |
| 2026-04-17 09:11 | 10.79554 | 78.59632 | 2284 ft | 158 kts | 282° |
| 2026-04-17 09:11 | 10.79779 | 78.58541 | 2280 ft | 158 kts | 281° |
| 2026-04-17 09:12 | 10.80008 | 78.57434 | 2274 ft | 158 kts | 282° |
| 2026-04-17 09:12 | 10.79905 | 78.56357 | 2301 ft | 158 kts | 240° |
| 2026-04-17 09:12 | 10.79090 | 78.55684 | 2265 ft | 149 kts | 189° |
| 2026-04-17 09:12 | 10.78125 | 78.55886 | 2299 ft | 149 kts | 143° |
| 2026-04-17 09:13 | 10.77390 | 78.56602 | 2277 ft | 143 kts | 128° |
| 2026-04-17 09:13 | 10.76768 | 78.57401 | 2304 ft | 144 kts | 126° |
| 2026-04-17 09:13 | 10.76170 | 78.58211 | 2285 ft | 143 kts | 123° |
| 2026-04-17 09:13 | 10.75675 | 78.59082 | 2273 ft | 145 kts | 112° |
| 2026-04-17 09:14 | 10.75410 | 78.60049 | 2282 ft | 140 kts | 98° |
| 2026-04-17 09:14 | 10.75343 | 78.61063 | 2231 ft | 146 kts | 89° |
| 2026-04-17 09:14 | 10.75413 | 78.62110 | 2096 ft | 147 kts | 84° |
| 2026-04-17 09:14 | 10.75547 | 78.63131 | 1869 ft | 141 kts | 82° |
| 2026-04-17 09:15 | 10.75692 | 78.64083 | 1695 ft | 136 kts | 82° |
| 2026-04-17 09:15 | 10.75837 | 78.65049 | 1535 ft | 144 kts | 82° |
| 2026-04-17 09:15 | 10.75984 | 78.66072 | 1333 ft | 143 kts | 82° |
| 2026-04-17 09:15 | 10.76119 | 78.67050 | 1164 ft | 140 kts | 82° |
| 2026-04-17 09:16 | 10.76264 | 78.68041 | 1024 ft | 141 kts | 79° |
| 2026-04-17 09:16 | 10.76425 | 78.69031 | 767 ft | 143 kts | 84° |
| 2026-04-17 09:16 | 10.76495 | 78.70028 | 523 ft | 141 kts | 85° |
| 2026-04-17 09:16 | 10.76563 | 78.71013 | 298 ft | 135 kts | 83° |
| 2026-04-17 09:17 | 10.76628 | 78.71757 | 292 ft | 64 kts | 85° |
| 2026-04-17 09:17 | 10.76641 | 78.71928 | 293 ft | 1 kts | 86° |
| 2026-04-17 09:17 | 10.76643 | 78.71957 | 293 ft | 7 kts | 86° |
| 2026-04-17 09:17 | 10.76646 | 78.72018 | 293 ft | 10 kts | 87° |
| 2026-04-17 09:18 | 10.76649 | 78.72089 | 293 ft | 9 kts | 87° |
| 2026-04-17 09:18 | 10.76652 | 78.72149 | 295 ft | 8 kts | 87° |
| 2026-04-17 09:18 | 10.76654 | 78.72198 | 296 ft | 7 kts | 88° |
| 2026-04-17 09:18 | 10.76626 | 78.72253 | 295 ft | 12 kts | 132° |
| 2026-04-17 09:19 | 10.76618 | 78.72277 | 297 ft | 2 kts | 87° |
| 2026-04-17 09:19 | 10.76625 | 78.72293 | 297 ft | 0 kts | 52° |
| 2026-04-17 09:19 | 10.76624 | 78.72323 | 298 ft | 13 kts | 109° |
| 2026-04-17 09:19 | 10.76622 | 78.72348 | 297 ft | 0 kts | 75° |
| 2026-04-17 09:20 | 10.76623 | 78.72352 | 296 ft | 1 kts | 73° |
| 2026-04-17 09:20 | 10.76629 | 78.72361 | 298 ft | 2 kts | 55° |
| 2026-04-17 09:20 | 10.76637 | 78.72367 | 298 ft | 2 kts | 35° |
| 2026-04-17 09:20 | 10.76657 | 78.72365 | 296 ft | 3 kts | 324° |
| 2026-04-17 09:21 | 10.76662 | 78.72330 | 294 ft | 9 kts | 273° |
| 2026-04-17 09:21 | 10.76657 | 78.72240 | 295 ft | 16 kts | 267° |
| 2026-04-17 09:21 | 10.76655 | 78.72096 | 299 ft | 24 kts | 272° |
| 2026-04-17 09:21 | 10.76639 | 78.71891 | 297 ft | 31 kts | 266° |
| 2026-04-17 09:22 | 10.76625 | 78.71718 | 294 ft | 18 kts | 263° |
| 2026-04-17 09:22 | 10.76610 | 78.71565 | 293 ft | 25 kts | 262° |
| 2026-04-17 09:22 | 10.76591 | 78.71371 | 298 ft | 30 kts | 265° |
| 2026-04-17 09:22 | 10.76572 | 78.71152 | 292 ft | 32 kts | 264° |
| 2026-04-17 09:23 | 10.76552 | 78.70939 | 293 ft | 21 kts | 246° |
| 2026-04-17 09:23 | 10.76499 | 78.70876 | 293 ft | 3 kts | 216° |
| 2026-04-17 09:23 | 10.76486 | 78.70873 | 298 ft | 5 kts | 192° |
| 2026-04-17 09:23 | 10.76410 | 78.70857 | 297 ft | 16 kts | 186° |
| 2026-04-17 09:24 | 10.76355 | 78.70869 | 295 ft | 2 kts | 142° |
| 2026-04-17 09:24 | 10.76334 | 78.70885 | 294 ft | 6 kts | 142° |
| 2026-04-17 09:24 | 10.76281 | 78.70918 | 295 ft | 11 kts | 150° |
| 2026-04-17 09:24 | 10.76200 | 78.70966 | 295 ft | 16 kts | 150° |
| 2026-04-17 09:25 | 10.76114 | 78.70976 | 294 ft | 12 kts | 218° |
| 2026-04-17 09:25 | 10.76086 | 78.70937 | 293 ft | 0 kts | 240° |